Time;durP1;ratioP1;P1;durP2;ratioP2;P2;SDS_P1;SDS_P2;PMS_P1;PMS_P2;Temp;Humidity;BMP_temperature;BMP_pressure;BME280_temperature;BME280_humidity;BME280_pressure;Samples;Min_cycle;Max_cycle;Signal;HPM_P1;HPM_P2
2024/03/07 04:51:38;;;;;;;29.58;15.25;;;3.20;99.90;;;;;;2603179;54;20033;31
2024/03/07 05:03:47;;;;;;;33.87;16.87;;;3.20;99.90;;;;;;2600285;54;20042;31
2024/03/07 05:06:51;;;;;;;32.15;15.23;;;3.20;99.90;;;;;;2621354;46;20328;31
2024/03/07 05:16:26;;;;;;;31.33;15.23;;;3.20;99.90;;;;;;2606154;46;20081;31
2024/03/07 05:28:39;;;;;;;30.95;15.35;;;3.10;99.90;;;;;;2601163;54;20996;31
2024/03/07 05:31:24;;;;;;;28.65;14.27;;;3.10;99.90;;;;;;2603169;54;20031;31
2024/03/07 05:51:34;;;;;;;28.42;14.13;;;3.10;99.90;;;;;;2628733;46;20411;31
2024/03/07 06:26:12;;;;;;;28.03;14.37;;;3.20;99.90;;;;;;2601669;54;20085;31
2024/03/07 06:28:49;;;;;;;27.10;14.85;;;3.20;99.90;;;;;;2602795;54;20030;31
2024/03/07 06:31:29;;;;;;;27.52;14.82;;;3.20;99.90;;;;;;2602796;54;20026;31
2024/03/07 06:34:22;;;;;;;25.13;14.65;;;3.20;99.90;;;;;;2602832;54;20026;31
2024/03/07 06:37:15;;;;;;;26.60;14.90;;;3.30;99.90;;;;;;2602789;54;20933;31
2024/03/07 06:39:58;;;;;;;26.25;13.60;;;3.30;99.90;;;;;;2602889;54;20762;31
2024/03/07 06:42:47;;;;;;;22.73;14.10;;;3.30;99.90;;;;;;2602949;54;20022;31
2024/03/07 06:45:24;;;;;;;26.95;14.25;;;3.20;99.90;;;;;;2610275;46;20037;31
2024/03/07 06:48:10;;;;;;;24.60;12.30;;;3.30;99.90;;;;;;2621128;46;20026;31
2024/03/07 06:50:48;;;;;;;21.40;13.00;;;3.30;99.90;;;;;;2602737;54;20034;31
2024/03/07 06:53:28;;;;;;;25.05;13.40;;;3.30;99.90;;;;;;2620890;46;20108;31
2024/03/07 06:56:19;;;;;;;29.33;15.32;;;3.30;99.90;;;;;;2602931;54;20929;31
2024/03/07 06:59:08;;;;;;;23.90;13.88;;;3.30;99.90;;;;;;2602601;54;20113;31
2024/03/07 07:01:58;;;;;;;24.80;13.80;;;3.30;99.90;;;;;;2602710;54;20037;31
2024/03/07 07:04:41;;;;;;;26.85;13.15;;;3.30;99.90;;;;;;2619175;46;20908;31
2024/03/07 07:07:17;;;;;;;24.25;12.35;;;3.30;99.90;;;;;;2602767;54;20876;31
2024/03/07 07:09:56;;;;;;;26.45;14.50;;;3.40;99.90;;;;;;2621338;46;20034;31
2024/03/07 07:15:34;;;;;;;23.20;13.95;;;3.40;99.90;;;;;;2602573;54;20876;31
2024/03/07 07:18:13;;;;;;;24.40;14.63;;;3.40;99.90;;;;;;2621227;46;20026;31
2024/03/07 07:20:55;;;;;;;25.73;13.80;;;3.40;99.90;;;;;;2620967;46;20046;31
2024/03/07 07:23:34;;;;;;;24.75;13.15;;;3.40;99.90;;;;;;2602564;54;20884;31
2024/03/07 07:26:17;;;;;;;25.65;14.20;;;3.40;99.90;;;;;;2620073;46;20042;31
2024/03/07 07:28:54;;;;;;;25.58;13.05;;;3.60;99.90;;;;;;2602612;54;20054;31
2024/03/07 07:31:32;;;;;;;;;;;3.60;99.90;;;;;;2621313;46;20034;31
2024/03/07 07:34:07;;;;;;;25.95;14.05;;;3.70;99.90;;;;;;2621211;46;20766;31
2024/03/07 07:36:42;;;;;;;24.70;13.00;;;3.60;99.90;;;;;;2621135;46;20081;31
2024/03/07 07:39:18;;;;;;;25.53;13.70;;;3.60;99.90;;;;;;2602494;54;20029;31
2024/03/07 07:41:53;;;;;;;30.20;14.77;;;3.60;99.90;;;;;;2602655;54;20866;31
2024/03/07 07:44:29;;;;;;;28.65;14.55;;;3.60;99.90;;;;;;2621186;47;20054;31
2024/03/07 07:47:05;;;;;;;27.35;15.93;;;3.60;99.90;;;;;;2602743;54;22393;31
2024/03/07 07:49:44;;;;;;;24.08;12.75;;;3.60;99.90;;;;;;2718234;39;21517;31
2024/03/07 08:01:21;;;;;;;28.80;14.63;;;3.70;99.90;;;;;;2602263;54;20861;31
2024/03/07 08:04:09;;;;;;;29.30;14.40;;;3.80;99.90;;;;;;2602494;54;20297;31
2024/03/07 08:06:51;;;;;;;26.97;14.87;;;3.80;99.90;;;;;;2602580;54;20027;31
2024/03/07 08:09:29;;;;;;;24.00;14.50;;;3.80;99.90;;;;;;2620163;47;20241;31
2024/03/07 08:12:12;;;;;;;23.17;13.50;;;3.80;99.90;;;;;;2620962;47;20035;31
2024/03/07 08:14:49;;;;;;;24.47;14.57;;;3.90;99.90;;;;;;2601676;54;21345;31
2024/03/07 08:59:23;;;;;;;25.48;14.43;;;4.60;99.90;;;;;;2606160;46;20021;31
2024/03/07 09:05:15;;;;;;;25.40;13.53;;;4.50;99.90;;;;;;2607294;46;21044;31
2024/03/07 09:08:36;;;;;;;23.40;13.23;;;4.60;99.90;;;;;;2602412;54;20304;31
2024/03/07 09:17:57;;;;;;;30.33;14.27;;;4.50;99.90;;;;;;2602890;54;20904;31
2024/03/07 09:21:27;;;;;;;23.23;14.03;;;4.40;99.90;;;;;;2606600;46;20031;31
2024/03/07 09:27:25;;;;;;;26.95;14.10;;;4.30;99.90;;;;;;2621243;46;20037;31
2024/03/07 09:33:01;;;;;;;26.80;14.75;;;4.30;99.90;;;;;;2602910;54;20022;31
2024/03/07 09:35:55;;;;;;;30.20;16.70;;;4.20;99.90;;;;;;2602861;54;20022;31
2024/03/07 09:44:27;;;;;;;26.60;14.00;;;4.20;99.90;;;;;;2607800;46;20052;31
2024/03/07 09:47:34;;;;;;;24.98;12.77;;;4.10;99.90;;;;;;2701530;39;21470;31
2024/03/07 09:50:50;;;;;;;25.98;13.88;;;4.10;99.90;;;;;;2620723;46;20027;31
2024/03/07 09:53:40;;;;;;;21.15;12.70;;;4.10;99.90;;;;;;2602842;54;20886;31
2024/03/07 10:05:18;;;;;;;21.55;12.52;;;4.10;99.90;;;;;;2602997;54;20026;31
2024/03/07 10:08:03;;;;;;;32.58;17.05;;;4.00;99.90;;;;;;2602936;54;20890;31
2024/03/07 10:10:47;;;;;;;61.33;26.88;;;4.00;99.90;;;;;;2602720;54;20023;31
2024/03/07 10:13:36;;;;;;;30.20;16.10;;;4.00;99.90;;;;;;2603035;54;20723;31
2024/03/07 10:19:31;;;;;;;27.58;15.43;;;3.90;99.90;;;;;;2606718;46;20944;31
2024/03/07 10:22:10;;;;;;;26.13;15.30;;;3.90;99.90;;;;;;2603030;54;20026;31
2024/03/07 10:27:31;;;;;;;25.77;14.13;;;3.90;99.90;;;;;;2621196;46;21218;31
2024/03/07 10:30:13;;;;;;;29.15;16.50;;;4.00;99.90;;;;;;2602826;54;20159;31
2024/03/07 10:32:55;;;;;;;26.35;14.35;;;4.20;99.90;;;;;;2602766;54;20920;31
2024/03/07 10:35:32;;;;;;;26.57;14.43;;;4.30;99.90;;;;;;2602751;54;20119;31
2024/03/07 10:38:11;;;;;;;25.75;14.65;;;4.40;99.90;;;;;;2602855;54;20026;31
2024/03/07 10:40:50;;;;;;;25.70;14.30;;;4.50;99.90;;;;;;2603000;54;20926;31
2024/03/07 10:43:28;;;;;;;25.90;14.75;;;4.70;99.90;;;;;;2602677;54;20937;31
2024/03/07 10:46:06;;;;;;;25.52;14.30;;;4.90;99.90;;;;;;2602505;54;20777;31
2024/03/07 10:48:42;;;;;;;27.88;15.73;;;5.10;99.90;;;;;;2602628;54;20915;31
2024/03/07 10:51:21;;;;;;;26.20;14.43;;;5.40;99.90;;;;;;2602771;54;20034;31
2024/03/07 10:54:05;;;;;;;23.23;14.63;;;5.70;99.90;;;;;;2602691;54;20842;31
2024/03/07 10:56:49;;;;;;;25.55;14.20;;;5.90;99.90;;;;;;2602749;54;20033;31
2024/03/07 10:59:29;;;;;;;24.50;14.30;;;5.90;99.90;;;;;;2602579;54;20750;31
2024/03/07 11:02:29;;;;;;;32.38;17.38;;;6.00;99.90;;;;;;2602492;54;20168;31
2024/03/07 11:05:07;;;;;;;29.45;15.50;;;6.00;99.90;;;;;;2621254;46;20027;31
2024/03/07 11:07:48;;;;;;;27.02;16.27;;;6.10;99.90;;;;;;2621089;46;20026;31
2024/03/07 11:10:24;;;;;;;22.58;13.48;;;6.10;99.90;;;;;;2621070;46;20890;31
2024/03/07 11:13:00;;;;;;;23.60;12.88;;;6.10;99.90;;;;;;2620992;46;20026;31
2024/03/07 11:15:42;;;;;;;21.40;13.82;;;6.10;99.90;;;;;;2602486;54;20038;31
2024/03/07 11:18:17;;;;;;;23.10;12.40;;;6.10;99.90;;;;;;2602546;54;20022;31
2024/03/07 11:20:57;;;;;;;25.10;12.50;;;6.10;99.90;;;;;;2602526;54;20030;31
2024/03/07 11:23:38;;;;;;;22.85;12.70;;;6.10;99.90;;;;;;2602661;54;20317;31
2024/03/07 11:26:16;;;;;;;20.23;12.27;;;6.10;99.90;;;;;;2602580;54;20026;31
2024/03/07 11:28:52;;;;;;;23.88;12.70;;;6.10;99.90;;;;;;2602512;54;20867;31
2024/03/07 11:31:33;;;;;;;21.45;12.80;;;6.20;99.90;;;;;;2602721;54;20037;31
2024/03/07 11:34:18;;;;;;;22.63;13.52;;;6.20;99.90;;;;;;2602449;54;20093;31
2024/03/07 11:36:56;;;;;;;29.50;13.80;;;6.20;99.90;;;;;;2602766;54;20199;31
2024/03/07 11:39:44;;;;;;;54.72;23.17;;;6.20;99.90;;;;;;2602108;54;20327;31
2024/03/07 11:42:25;;;;;;;25.88;12.88;;;6.20;99.90;;;;;;2602612;54;20034;31
2024/03/07 11:45:03;;;;;;;108.00;39.72;;;6.20;99.90;;;;;;2602280;54;20042;31
2024/03/07 11:47:43;;;;;;;22.83;12.88;;;6.20;99.90;;;;;;2602816;54;20898;31
2024/03/07 11:50:19;;;;;;;20.77;11.38;;;6.20;99.90;;;;;;2602488;54;20856;31
2024/03/07 11:52:59;;;;;;;21.05;11.38;;;6.10;99.90;;;;;;2602553;54;20099;31
2024/03/07 11:55:41;;;;;;;22.45;13.25;;;6.20;99.90;;;;;;2602214;54;20023;31
2024/03/07 11:58:17;;;;;;;23.23;12.15;;;6.30;99.90;;;;;;2632145;54;20014;-92
2024/03/07 12:00:58;;;;;;;18.75;10.68;;;6.30;99.90;;;;;;2632096;54;20005;-94
2024/03/07 12:03:38;;;;;;;19.60;10.95;;;6.40;99.90;;;;;;2602911;54;20109;31
2024/03/07 12:06:17;;;;;;;20.05;9.75;;;6.50;99.90;;;;;;2602511;54;20898;31
2024/03/07 12:08:52;;;;;;;17.88;11.07;;;6.60;99.90;;;;;;2602990;54;20053;31
2024/03/07 12:11:36;;;;;;;18.08;11.13;;;6.70;99.90;;;;;;2621433;46;20545;31
2024/03/07 12:14:16;;;;;;;18.70;10.90;;;6.70;99.90;;;;;;2603177;54;20922;31
2024/03/07 12:16:52;;;;;;;17.63;10.80;;;6.80;99.90;;;;;;2606611;46;20892;31
2024/03/07 12:19:27;;;;;;;;;;;6.80;99.90;;;;;;2702081;39;22286;31
2024/03/07 12:22:12;;;;;;;15.68;9.65;;;6.70;99.90;;;;;;2603260;54;20006;31
2024/03/07 12:24:49;;;;;;;18.35;9.85;;;6.70;99.90;;;;;;2603072;54;20029;31
2024/03/07 12:27:25;;;;;;;18.05;10.75;;;6.70;99.90;;;;;;2621907;46;20751;31
2024/03/07 12:30:07;;;;;;;17.27;10.23;;;6.70;99.90;;;;;;2621692;46;20026;31
2024/03/07 12:32:49;;;;;;;17.55;9.60;;;6.70;99.90;;;;;;2603078;54;20026;31
2024/03/07 12:35:24;;;;;;;19.05;10.40;;;6.80;99.90;;;;;;2603178;54;21223;31
2024/03/07 12:38:03;;;;;;;17.90;10.50;;;6.80;99.90;;;;;;2603269;54;20023;31
2024/03/07 12:40:46;;;;;;;17.15;10.30;;;6.70;99.90;;;;;;2603359;54;20806;31
2024/03/07 12:46:01;;;;;;;17.40;10.70;;;6.70;99.90;;;;;;2602953;54;20934;31
2024/03/07 12:48:44;;;;;;;17.15;9.48;;;6.70;99.90;;;;;;2621010;46;20027;31
2024/03/07 12:51:22;;;;;;;17.17;10.27;;;6.70;99.90;;;;;;2621127;46;20030;31
2024/03/07 12:54:04;;;;;;;16.92;10.00;;;6.60;99.90;;;;;;2603404;54;20023;31
2024/03/07 12:56:41;;;;;;;20.50;10.05;;;6.60;99.90;;;;;;2602152;54;20033;31
2024/03/07 12:59:19;;;;;;;20.92;11.27;;;6.60;99.90;;;;;;2621367;46;20087;31
2024/03/07 13:01:56;;;;;;;20.00;10.15;;;6.60;99.90;;;;;;2602959;54;20085;31
2024/03/07 13:04:37;;;;;;;19.00;10.27;;;6.60;99.90;;;;;;2602967;54;20052;31
2024/03/07 13:07:20;;;;;;;22.65;11.73;;;6.50;99.90;;;;;;2602977;54;20026;31
2024/03/07 13:10:00;;;;;;;18.85;11.75;;;6.50;99.90;;;;;;2603065;54;20023;31
2024/03/07 13:12:37;;;;;;;30.57;15.60;;;6.50;99.90;;;;;;2603074;54;20069;31
2024/03/07 13:15:15;;;;;;;27.95;13.90;;;6.50;99.90;;;;;;2621220;46;20226;31
2024/03/07 13:17:54;;;;;;;24.95;12.55;;;6.50;99.90;;;;;;2601894;54;20039;31
2024/03/07 13:20:34;;;;;;;17.63;11.82;;;6.50;99.90;;;;;;2602335;54;20030;31
2024/03/07 13:23:10;;;;;;;18.58;10.93;;;6.50;99.90;;;;;;2602819;54;20086;31
2024/03/07 13:25:53;;;;;;;18.95;11.55;;;6.50;99.90;;;;;;2621508;46;20743;31
2024/03/07 13:28:34;;;;;;;19.80;11.73;;;6.50;99.90;;;;;;2620711;46;20031;31
2024/03/07 13:31:17;;;;;;;21.03;12.07;;;6.50;99.90;;;;;;2620436;46;20085;31
2024/03/07 13:33:53;;;;;;;22.45;13.20;;;6.40;99.90;;;;;;2603108;54;20876;31
2024/03/07 13:36:30;;;;;;;30.85;17.08;;;6.40;99.90;;;;;;2602895;54;20031;31
2024/03/07 13:39:05;;;;;;;32.67;19.67;;;6.40;99.90;;;;;;2602713;54;20049;31
2024/03/07 13:41:49;;;;;;;25.98;15.40;;;6.40;99.90;;;;;;2621293;46;20876;31
2024/03/07 13:44:27;;;;;;;35.20;20.02;;;6.40;99.90;;;;;;2602864;54;20042;31
2024/03/07 13:47:08;;;;;;;31.35;19.55;;;6.40;99.90;;;;;;2621198;46;20033;31
2024/03/07 13:49:42;;;;;;;;;;;6.40;99.90;;;;;;2621696;46;20029;31
2024/03/07 13:52:18;;;;;;;39.88;20.13;;;6.30;99.90;;;;;;2621392;46;19962;31
2024/03/07 13:54:54;;;;;;;31.63;17.02;;;6.30;99.90;;;;;;2602782;54;20057;31
2024/03/07 13:57:40;;;;;;;31.10;18.33;;;6.30;99.90;;;;;;2621194;46;20034;31
2024/03/07 14:00:31;;;;;;;28.15;17.50;;;6.30;99.90;;;;;;2602932;54;21585;31
2024/03/07 14:03:37;;;;;;;23.45;13.90;;;6.20;99.90;;;;;;2701466;39;20414;31
2024/03/07 14:06:15;;;;;;;25.70;13.93;;;6.20;99.90;;;;;;2620430;46;20925;31
2024/03/07 14:08:51;;;;;;;26.10;16.77;;;6.20;99.90;;;;;;2602833;54;20898;31
2024/03/07 14:11:57;;;;;;;24.08;14.65;;;6.20;99.90;;;;;;2602962;54;20118;31
2024/03/07 14:15:19;;;;;;;20.37;13.43;;;6.30;99.90;;;;;;2602698;54;20979;31
2024/03/07 14:18:29;;;;;;;27.10;16.83;;;6.30;99.90;;;;;;2602736;54;20038;31
2024/03/07 14:27:03;;;;;;;23.20;12.80;;;6.30;99.90;;;;;;2602665;54;20192;31
2024/03/07 14:29:43;;;;;;;25.00;12.85;;;6.30;99.90;;;;;;2602823;54;20145;31
2024/03/07 14:32:26;;;;;;;35.10;20.87;;;6.30;99.90;;;;;;2602674;54;20030;31
2024/03/07 14:35:35;;;;;;;43.77;25.10;;;6.30;99.90;;;;;;2602644;54;20361;31
2024/03/07 14:38:28;;;;;;;28.40;15.55;;;6.30;99.90;;;;;;2621159;46;20979;31
2024/03/07 14:43:52;;;;;;;22.70;12.98;;;6.30;99.90;;;;;;2602127;54;20026;31
2024/03/07 14:46:37;;;;;;;;;;;6.30;99.90;;;;;;2602580;54;21583;31
2024/03/07 14:49:30;;;;;;;18.50;11.30;;;6.30;99.90;;;;;;2602590;54;21499;31
2024/03/07 14:55:43;;;;;;;22.13;11.48;;;6.30;99.90;;;;;;2602613;54;20050;31
2024/03/07 15:01:12;;;;;;;22.53;14.10;;;6.30;99.90;;;;;;2601884;54;20957;31
2024/03/07 15:06:45;;;;;;;24.73;15.90;;;6.30;99.90;;;;;;2602603;54;20869;31
2024/03/07 15:09:22;;;;;;;23.30;13.63;;;6.30;99.90;;;;;;2602604;54;20108;31
2024/03/07 15:12:09;;;;;;;23.10;13.90;;;6.30;99.90;;;;;;2601945;54;20890;31
2024/03/07 15:14:51;;;;;;;22.30;13.90;;;6.30;99.90;;;;;;2601882;54;20030;31
2024/03/07 15:17:45;;;;;;;24.55;14.45;;;6.20;99.90;;;;;;2602286;54;20569;31
2024/03/07 15:26:25;;;;;;;20.77;13.20;;;6.20;99.90;;;;;;2602603;54;20801;31
2024/03/07 15:29:08;;;;;;;22.63;13.10;;;6.20;99.90;;;;;;2632351;54;19918;-93
2024/03/07 15:34:40;;;;;;;31.55;15.45;;;6.10;99.90;;;;;;2602533;54;20728;31
2024/03/07 15:37:35;;;;;;;22.10;13.15;;;6.20;99.90;;;;;;2602387;54;20050;31
2024/03/07 15:46:37;;;;;;;24.70;12.32;;;6.10;99.90;;;;;;2631249;54;20051;-95
2024/03/07 15:49:21;;;;;;;31.52;15.45;;;6.10;99.90;;;;;;2620977;47;20081;31
2024/03/07 15:52:06;;;;;;;23.48;13.98;;;6.00;99.90;;;;;;2602439;54;20619;31
2024/03/07 15:55:01;;;;;;;27.38;15.40;;;6.10;99.90;;;;;;2620479;47;20061;31
2024/03/07 16:04:15;;;;;;;30.70;16.05;;;6.00;99.90;;;;;;2602409;54;20030;31
2024/03/07 16:07:16;;;;;;;36.40;20.63;;;6.10;99.90;;;;;;2602586;54;20741;31
2024/03/07 16:10:16;;;;;;;27.65;17.45;;;6.40;99.90;;;;;;2602309;54;20030;31
2024/03/07 16:12:56;;;;;;;26.45;15.55;;;6.40;99.90;;;;;;2602488;54;21219;31
2024/03/07 16:16:07;;;;;;;43.47;24.27;;;6.30;1.00;;;;;;2602171;54;20049;31
2024/03/07 16:19:20;;;;;;;33.23;16.93;;;6.40;99.90;;;;;;2602238;54;20030;31
2024/03/07 16:31:10;;;;;;;39.90;23.83;;;6.10;1.00;;;;;;2601546;54;20898;31
2024/03/07 16:33:48;;;;;;;41.35;23.75;;;6.00;1.00;;;;;;2620812;47;20892;31
2024/03/07 16:42:32;;;;;;;49.05;25.10;;;5.90;52.80;;;;;;2602368;54;20030;31
2024/03/07 16:45:14;;;;;;;34.65;19.50;;;5.90;76.20;;;;;;2700477;39;21453;31
2024/03/07 16:47:53;;;;;;;40.45;22.63;;;5.80;99.90;;;;;;2602229;54;20834;31
2024/03/07 16:50:29;;;;;;;42.25;23.73;;;5.80;99.90;;;;;;2602266;54;20945;31
2024/03/07 16:53:05;;;;;;;;;;;5.80;99.90;;;;;;2602762;54;20027;31
2024/03/07 16:55:43;;;;;;;34.80;19.90;;;5.80;99.90;;;;;;2621620;46;19960;31
2024/03/07 16:58:27;;;;;;;52.25;28.80;;;5.80;99.90;;;;;;2603089;54;20298;31
2024/03/07 17:01:04;;;;;;;42.00;22.45;;;5.70;99.90;;;;;;2603056;54;21127;31
2024/03/07 17:03:39;;;;;;;46.15;22.88;;;5.80;99.90;;;;;;2603030;54;20137;31
2024/03/07 17:06:17;;;;;;;54.28;25.17;;;5.70;99.90;;;;;;2602746;54;20050;31
2024/03/07 17:08:53;;;;;;;53.20;27.75;;;5.70;99.90;;;;;;2603038;54;20116;31
2024/03/07 17:11:36;;;;;;;47.80;22.83;;;5.70;1.00;;;;;;2603162;54;20057;31
2024/03/07 17:14:18;;;;;;;63.95;28.30;;;5.70;1.00;;;;;;2621673;46;20757;31
2024/03/07 17:16:54;;;;;;;56.70;25.88;;;5.70;1.00;;;;;;2621465;46;20026;31
2024/03/07 17:19:37;;;;;;;50.70;24.00;;;5.70;1.00;;;;;;2602904;54;20948;31
2024/03/07 17:28:06;;;;;;;33.60;17.43;;;5.60;1.00;;;;;;2602767;54;19990;31
2024/03/07 17:30:51;;;;;;;27.05;14.80;;;5.60;1.00;;;;;;2602970;54;20091;31
2024/03/07 17:33:39;;;;;;;25.80;14.13;;;5.50;1.00;;;;;;2602858;54;20038;31
2024/03/07 17:36:21;;;;;;;25.00;14.40;;;5.50;1.00;;;;;;2621551;46;20033;31
2024/03/07 17:45:11;;;;;;;28.00;14.07;;;5.40;8.80;;;;;;2701314;39;20384;31
2024/03/07 17:48:20;;;;;;;23.10;14.02;;;5.30;58.50;;;;;;2602841;54;20249;31
2024/03/07 17:51:10;;;;;;;30.55;17.05;;;5.20;99.90;;;;;;2621592;46;20901;31
2024/03/07 17:53:57;;;;;;;29.88;15.15;;;5.20;99.90;;;;;;2602636;54;20026;31
2024/03/07 17:56:37;;;;;;;25.80;15.63;;;5.20;99.90;;;;;;2620545;46;20920;31
2024/03/07 17:59:21;;;;;;;30.93;16.97;;;5.20;99.90;;;;;;2602584;54;20854;31
2024/03/07 18:02:29;;;;;;;48.35;22.33;;;5.20;99.90;;;;;;2602777;54;20148;31
2024/03/07 18:08:19;;;;;;;56.27;22.20;;;5.20;99.90;;;;;;2602776;54;20023;31
2024/03/07 18:11:26;;;;;;;52.00;20.25;;;5.20;99.90;;;;;;2602908;54;20238;31
2024/03/07 18:17:03;;;;;;;34.35;16.25;;;5.10;99.90;;;;;;2603055;54;20030;31
2024/03/07 18:19:54;;;;;;;30.17;16.02;;;5.10;99.90;;;;;;2602909;54;20922;31
2024/03/07 18:22:50;;;;;;;26.38;14.85;;;5.10;99.90;;;;;;2602771;54;20857;31
2024/03/07 18:25:33;;;;;;;27.73;16.02;;;5.10;99.90;;;;;;2602664;54;20113;31
2024/03/07 18:40:43;;;;;;;24.52;14.63;;;5.10;99.90;;;;;;2602584;54;20980;31
2024/03/07 18:43:51;;;;;;;27.08;14.75;;;5.00;99.90;;;;;;2603008;54;22393;31
2024/03/07 18:46:42;;;;;;;27.67;14.67;;;5.00;99.90;;;;;;2602813;54;20031;31
2024/03/07 18:52:43;;;;;;;28.95;15.13;;;5.00;99.90;;;;;;2602661;54;20026;31
2024/03/07 18:55:31;;;;;;;28.30;15.18;;;5.00;99.90;;;;;;2602586;54;20896;31
2024/03/07 18:58:31;;;;;;;27.30;15.82;;;5.10;99.90;;;;;;2602662;54;20050;31
2024/03/07 19:01:21;;;;;;;24.40;13.45;;;5.00;99.90;;;;;;2606014;46;20056;31
2024/03/07 19:03:57;;;;;;;27.25;15.63;;;5.10;99.90;;;;;;2621257;46;20030;31
2024/03/07 19:06:42;;;;;;;27.17;15.00;;;5.00;99.90;;;;;;2621238;46;20022;31
2024/03/07 19:09:32;;;;;;;28.48;15.20;;;5.00;99.90;;;;;;2607127;46;20030;31
2024/03/07 19:12:10;;;;;;;25.33;14.27;;;5.10;99.90;;;;;;2602764;54;20027;31
2024/03/07 19:14:54;;;;;;;25.45;15.57;;;5.10;99.90;;;;;;2722905;39;21586;31
2024/03/07 19:17:52;;;;;;;23.10;13.88;;;5.10;99.90;;;;;;2601970;54;20081;31
2024/03/07 19:20:31;;;;;;;25.65;15.65;;;5.10;99.90;;;;;;2602524;54;20026;31
2024/03/07 19:23:13;;;;;;;24.30;14.50;;;5.10;99.90;;;;;;2602539;54;20026;31
2024/03/07 19:25:51;;;;;;;29.03;14.67;;;5.00;99.90;;;;;;2602781;54;20045;31
2024/03/07 19:28:28;;;;;;;27.53;14.27;;;5.00;99.90;;;;;;2620968;46;21216;31
2024/03/07 19:31:15;;;;;;;25.45;15.20;;;5.00;99.90;;;;;;2601779;54;20037;31
2024/03/07 19:33:56;;;;;;;27.05;14.90;;;5.00;99.90;;;;;;2950908;46;20007;-94
2024/03/07 19:42:10;;;;;;;27.65;15.70;;;5.00;99.90;;;;;;2618565;46;20093;31
2024/03/07 19:45:00;;;;;;;30.03;15.70;;;5.00;99.90;;;;;;2618765;46;20029;31
2024/03/07 19:48:10;;;;;;;35.70;16.35;;;4.90;99.90;;;;;;2602696;54;20792;31
2024/03/07 19:51:00;;;;;;;32.00;16.23;;;4.90;99.90;;;;;;2606382;47;20899;31
2024/03/07 19:53:46;;;;;;;30.42;16.20;;;5.00;99.90;;;;;;2602564;54;20537;31
2024/03/07 19:56:27;;;;;;;29.65;16.17;;;5.00;99.90;;;;;;2620416;47;20051;31
2024/03/07 19:59:07;;;;;;;26.40;14.75;;;4.90;99.90;;;;;;2620967;47;20027;31
2024/03/07 20:01:48;;;;;;;29.27;15.75;;;4.80;99.90;;;;;;2602456;54;20034;31
2024/03/07 20:04:32;;;;;;;28.65;15.55;;;4.70;99.90;;;;;;2602417;54;20030;31
2024/03/07 20:07:15;;;;;;;27.25;14.95;;;4.80;99.90;;;;;;2790061;31;21664;31
2024/03/07 20:10:06;;;;;;;29.35;16.25;;;4.80;99.90;;;;;;2602190;54;20925;31
2024/03/07 20:12:43;;;;;;;24.73;14.70;;;4.80;99.90;;;;;;2602717;54;20026;31
2024/03/07 20:15:22;;;;;;;25.33;14.93;;;4.70;99.90;;;;;;2602469;54;20916;31
2024/03/07 20:18:02;;;;;;;25.60;14.75;;;4.70;99.90;;;;;;2601568;54;20030;31
2024/03/07 20:20:43;;;;;;;26.58;15.30;;;4.70;99.90;;;;;;2602552;54;20868;31
2024/03/07 20:23:23;;;;;;;26.35;14.38;;;4.60;99.90;;;;;;2620764;47;20026;31
2024/03/07 20:25:58;;;;;;;28.60;14.68;;;4.60;99.90;;;;;;2602163;54;20935;31
2024/03/07 20:28:43;;;;;;;32.33;16.25;;;4.50;99.90;;;;;;2603042;54;20105;31
2024/03/07 20:31:19;;;;;;;25.60;15.02;;;4.50;99.90;;;;;;2621810;46;20853;31
2024/03/07 20:34:17;;;;;;;36.20;15.38;;;4.50;99.90;;;;;;2603509;54;20770;31
2024/03/07 20:37:18;;;;;;;28.50;14.52;;;4.40;99.90;;;;;;2603375;54;20749;31
2024/03/07 20:40:07;;;;;;;27.85;15.70;;;4.40;99.90;;;;;;2621599;46;20030;31
2024/03/07 20:42:53;;;;;;;28.30;15.47;;;4.40;99.90;;;;;;2603543;54;20029;31
2024/03/07 20:46:06;;;;;;;30.93;16.70;;;4.30;99.90;;;;;;2621936;46;20251;31
2024/03/07 20:48:45;;;;;;;25.93;14.63;;;4.30;99.90;;;;;;2603000;54;21280;31
2024/03/07 20:51:37;;;;;;;22.93;13.67;;;4.20;99.90;;;;;;2603107;54;20046;31
2024/03/07 20:57:28;;;;;;;28.27;15.00;;;4.10;99.90;;;;;;2602910;54;20034;31
2024/03/07 21:06:42;;;;;;;26.37;14.60;;;3.90;99.90;;;;;;2602974;54;20520;31
2024/03/07 21:09:52;;;;;;;29.77;14.97;;;3.90;99.90;;;;;;2602948;54;20022;31
2024/03/07 21:22:17;;;;;;;;;;;3.70;1.00;;;;;;2621662;46;20038;31
2024/03/07 21:25:24;;;;;;;27.33;14.17;;;3.60;1.00;;;;;;2602967;54;19958;31
2024/03/07 21:37:07;;;;;;;31.33;17.47;;;3.40;1.00;;;;;;2603097;54;20032;31
2024/03/07 21:43:06;;;;;;;29.80;15.45;;;3.30;1.00;;;;;;2602789;54;20072;31
2024/03/07 21:46:14;;;;;;;38.22;16.98;;;3.30;1.00;;;;;;2603084;54;20053;31
2024/03/07 21:49:09;;;;;;;32.05;15.73;;;3.20;1.00;;;;;;2603032;54;20915;31
2024/03/07 21:52:00;;;;;;;32.13;16.80;;;3.10;1.00;;;;;;2603116;54;20034;31
2024/03/07 21:54:53;;;;;;;31.85;16.13;;;3.10;1.00;;;;;;2602811;54;20924;31
2024/03/07 21:57:46;;;;;;;39.90;21.30;;;3.00;1.00;;;;;;2603086;54;20808;31
2024/03/07 22:00:36;;;;;;;36.30;19.60;;;2.90;1.00;;;;;;2603049;54;20050;31
2024/03/07 22:03:30;;;;;;;31.27;16.48;;;2.90;1.00;;;;;;2603040;54;20052;31
2024/03/07 22:06:14;;;;;;;33.87;16.60;;;2.80;1.00;;;;;;2602822;54;20885;31
2024/03/07 22:09:04;;;;;;;40.60;19.13;;;2.80;1.00;;;;;;2604639;46;20262;31
2024/03/07 22:11:51;;;;;;;37.50;18.77;;;2.80;1.00;;;;;;2603085;54;20908;31
2024/03/07 22:14:47;;;;;;;38.58;17.55;;;2.70;1.00;;;;;;2621418;46;20915;31
2024/03/07 22:20:25;;;;;;;37.00;18.20;;;2.60;1.00;;;;;;2602727;54;20077;31
2024/03/07 22:23:13;;;;;;;31.85;17.85;;;2.60;1.00;;;;;;2602711;54;20026;31
2024/03/07 22:26:02;;;;;;;33.63;16.80;;;2.50;1.00;;;;;;2603266;54;20174;31
2024/03/07 22:34:24;;;;;;;31.02;16.15;;;2.40;1.00;;;;;;2602083;54;20773;31
2024/03/07 22:43:04;;;;;;;30.63;16.37;;;2.30;1.00;;;;;;2602138;54;20900;31
2024/03/07 22:45:44;;;;;;;34.40;17.33;;;2.30;1.00;;;;;;2602862;54;20242;31
2024/03/07 22:48:29;;;;;;;32.80;17.33;;;2.30;1.00;;;;;;2602115;54;20827;31
2024/03/07 22:51:13;;;;;;;40.20;17.58;;;2.20;1.00;;;;;;2602549;54;20026;31
2024/03/07 22:53:56;;;;;;;35.90;18.23;;;2.20;1.00;;;;;;2616399;46;20031;31
2024/03/07 22:56:43;;;;;;;37.63;20.08;;;2.10;1.00;;;;;;2603107;54;20942;31
2024/03/07 23:02:05;;;;;;;41.47;20.33;;;2.10;1.00;;;;;;2602818;54;20034;31
2024/03/07 23:04:44;;;;;;;36.80;18.70;;;2.10;1.00;;;;;;2601231;54;20660;31
2024/03/07 23:07:26;;;;;;;35.25;17.50;;;2.00;1.00;;;;;;2601998;54;20239;31
2024/03/07 23:10:20;;;;;;;34.55;18.20;;;2.00;1.00;;;;;;2601992;54;19934;31
2024/03/07 23:13:07;;;;;;;35.30;18.43;;;2.00;1.00;;;;;;2602649;54;20033;31
2024/03/07 23:15:43;;;;;;;35.75;19.65;;;1.90;1.00;;;;;;2614694;46;20026;31
2024/03/07 23:18:24;;;;;;;36.33;19.53;;;1.90;1.00;;;;;;2608120;46;20062;31
2024/03/07 23:21:06;;;;;;;44.03;22.73;;;1.90;1.00;;;;;;2620367;46;20087;31
2024/03/07 23:23:44;;;;;;;33.88;17.52;;;1.90;1.00;;;;;;2632313;54;20049;-93
2024/03/07 23:29:01;;;;;;;34.40;17.93;;;1.80;1.00;;;;;;2629777;54;21170;31
2024/03/07 23:31:41;;;;;;;43.33;20.10;;;1.80;1.00;;;;;;2602774;54;20026;31
2024/03/07 23:34:26;;;;;;;42.78;19.92;;;1.70;1.00;;;;;;2602638;54;20030;31
2024/03/07 23:37:01;;;;;;;41.42;19.45;;;1.70;1.00;;;;;;2620687;46;20026;31
2024/03/07 23:39:41;;;;;;;33.47;18.73;;;1.70;2.30;;;;;;2602811;54;20911;31
2024/03/07 23:42:15;;;;;;;43.95;18.88;;;1.70;2.80;;;;;;2602414;54;20034;31
2024/03/07 23:44:52;;;;;;;35.43;17.80;;;1.60;4.70;;;;;;2602817;54;20871;31
2024/03/07 23:47:27;;;;;;;36.85;18.45;;;1.60;6.40;;;;;;2602525;54;21079;31
2024/03/07 23:50:07;;;;;;;43.10;21.20;;;1.60;10.00;;;;;;2602648;54;20026;31
2024/03/07 23:52:43;;;;;;;37.58;20.42;;;1.50;12.30;;;;;;2602869;54;20089;31
2024/03/07 23:55:19;;;;;;;41.50;19.05;;;1.50;14.20;;;;;;2602693;54;20910;31
2024/03/07 23:57:54;;;;;;;41.70;20.65;;;1.50;16.10;;;;;;2602769;54;20033;31
